Time;durP1;ratioP1;P1;durP2;ratioP2;P2;SDS_P1;SDS_P2;PMS_P1;PMS_P2;Temp;Humidity;BMP_temperature;BMP_pressure;BME280_temperature;BME280_humidity;BME280_pressure;Samples;Min_cycle;Max_cycle;Signal;HPM_P1;HPM_P2
2023/07/16 07:01:24;;;;;;;0.10;0.10;;;21.80;99.90;28.60;101038.00;;;;6108742;22;3430193;-62
2023/07/16 07:03:54;;;;;;;0.82;0.82;;;23.50;99.90;26.10;101086.00;;;;6246409;23;20169;-62
2023/07/16 07:06:21;;;;;;;0.77;0.77;;;23.10;99.90;27.20;101070.00;;;;6247928;22;20588;-62
2023/07/16 07:08:47;;;;;;;1.10;1.00;;;23.20;99.90;25.20;101096.00;;;;6246418;23;20149;-62
2023/07/16 07:11:15;;;;;;;1.75;1.25;;;22.70;99.90;24.00;101130.00;;;;6247697;23;20644;-62
2023/07/16 07:13:51;;;;;;;0.22;0.22;;;21.90;99.90;26.10;101107.00;;;;6246112;23;20158;-62
2023/07/16 07:16:39;;;;;;;0.40;0.40;;;22.30;99.90;25.00;101113.00;;;;6246727;23;20157;-62
2023/07/16 07:19:13;;;;;;;0.85;0.73;;;22.00;99.90;27.20;101073.00;;;;6247375;22;20578;-62
2023/07/16 07:21:39;;;;;;;0.55;0.47;;;23.20;99.90;25.90;101102.00;;;;6247563;22;20138;-62
2023/07/16 07:24:05;;;;;;;0.30;0.30;;;22.60;99.90;25.00;101087.00;;;;6247488;23;20221;-62
2023/07/16 07:26:33;;;;;;;0.10;0.10;;;22.50;99.90;27.50;101080.00;;;;6247836;23;20138;-62
2023/07/16 07:29:01;;;;;;;0.73;0.70;;;23.20;99.90;29.90;101035.00;;;;6246037;23;20157;-62
2023/07/16 07:31:37;;;;;;;0.15;0.15;;;24.80;99.90;29.90;101042.00;;;;6247935;22;20145;-62
2023/07/16 07:34:09;;;;;;;2.15;1.95;;;25.70;99.90;24.50;101119.00;;;;6247355;22;20137;-62
2023/07/16 07:36:34;;;;;;;1.75;1.58;;;24.00;99.90;25.40;101101.00;;;;6247441;22;20138;-62
2023/07/16 07:39:03;;;;;;;0.17;0.17;;;22.80;99.90;28.90;101067.00;;;;6245870;23;20232;-62
2023/07/16 07:41:34;;;;;;;1.40;1.10;;;24.00;99.90;28.70;101067.00;;;;6247810;23;20169;-64
2023/07/16 07:44:02;;;;;;;0.82;0.82;;;24.90;99.90;27.90;101102.00;;;;6247394;22;20220;-64
2023/07/16 07:46:28;;;;;;;0.10;0.10;;;24.30;99.90;27.10;101105.00;;;;6247711;22;20233;-64
2023/07/16 07:48:54;;;;;;;2.53;1.08;;;24.10;99.90;28.00;101092.00;;;;6246860;23;20173;-61
2023/07/16 07:51:23;;;;;;;1.73;1.10;;;24.40;99.90;27.70;101089.00;;;;6245014;23;20221;-61
2023/07/16 07:53:54;;;;;;;0.85;0.75;;;24.70;99.90;27.10;101113.00;;;;6247507;23;20500;-61
2023/07/16 07:56:25;;;;;;;0.10;0.10;;;24.30;99.90;29.20;101085.00;;;;6247544;23;20134;-64
2023/07/16 07:58:59;;;;;;;1.65;0.65;;;25.00;99.90;25.80;101144.00;;;;6247522;23;20444;-61
2023/07/16 08:01:29;;;;;;;0.82;0.82;;;23.30;99.90;25.20;101147.00;;;;6247069;22;20283;-61
2023/07/16 08:04:00;;;;;;;1.35;1.00;;;22.70;99.90;26.30;101144.00;;;;6245428;23;20489;-62
2023/07/16 08:06:36;;;;;;;0.68;0.68;;;23.00;99.90;27.40;101125.00;;;;6246753;22;20150;-61
2023/07/16 08:09:05;;;;;;;0.55;0.55;;;23.50;99.90;26.60;101136.00;;;;6247389;22;20137;-61
2023/07/16 08:11:50;;;;;;;1.00;1.00;;;23.40;99.90;25.50;101137.00;;;;6245771;23;20161;-61
2023/07/16 08:14:30;;;;;;;0.52;0.52;;;22.40;99.90;27.20;101137.00;;;;6247403;22;20142;-61
2023/07/16 08:17:01;;;;;;;6.80;0.75;;;22.90;99.90;25.80;101143.00;;;;6247249;22;20153;-61
2023/07/16 08:19:35;;;;;;;1.23;1.00;;;22.60;99.90;24.40;101161.00;;;;6247201;23;20138;-63
2023/07/16 08:22:11;;;;;;;1.85;1.15;;;21.70;99.90;26.40;101163.00;;;;6247245;22;20177;-61
2023/07/16 08:24:53;;;;;;;0.85;0.73;;;22.40;99.90;27.00;101163.00;;;;6245467;23;20173;-61
2023/07/16 08:27:33;;;;;;;2.83;1.38;;;23.20;99.90;25.90;101165.00;;;;6245526;23;20649;-61
2023/07/16 08:30:04;;;;;;;0.40;0.40;;;22.80;99.90;25.70;101178.00;;;;6246867;22;20240;-61
2023/07/16 08:32:30;;;;;;;1.10;1.02;;;22.50;99.90;26.60;101160.00;;;;6246801;22;20148;-61
2023/07/16 08:35:01;;;;;;;0.32;0.30;;;23.00;99.90;27.10;101159.00;;;;6246923;23;20368;-62
2023/07/16 08:37:35;;;;;;;0.20;0.20;;;23.20;99.90;26.20;101177.00;;;;6247215;23;20145;-62
2023/07/16 08:40:28;;;;;;;0.63;0.45;;;23.00;99.90;25.80;101188.00;;;;6246933;22;20161;-62
2023/07/16 08:43:19;;;;;;;6.00;2.90;;;22.80;99.90;23.50;101215.00;;;;6245435;23;20165;-62
2023/07/16 08:46:28;;;;;;;0.80;0.80;;;21.80;99.90;26.10;101189.00;;;;6153780;23;20166;-63
2023/07/16 08:49:07;;;;;;;0.20;0.20;;;22.10;99.90;27.10;101173.00;;;;6129890;23;20156;-62
2023/07/16 08:51:56;;;;;;;1.73;1.38;;;22.90;99.90;24.10;101216.00;;;;6240459;22;20250;-60
2023/07/16 08:54:54;;;;;;;0.75;0.73;;;22.20;99.90;24.60;101199.00;;;;6228020;23;20168;-62
2023/07/16 08:58:06;;;;;;;0.60;0.60;;;21.50;99.90;24.10;101218.00;;;;6237976;22;20492;-63
2023/07/16 09:01:02;;;;;;;2.67;1.50;;;21.80;99.90;23.40;101202.00;;;;6244961;23;20482;-62
2023/07/16 09:03:33;;;;;;;0.25;0.25;;;21.10;99.90;25.40;101182.00;;;;6232811;23;20251;-62
2023/07/16 09:06:06;;;;;;;0.10;0.10;;;21.50;99.90;26.70;101189.00;;;;6246615;22;20150;-63
2023/07/16 09:08:40;;;;;;;1.08;0.73;;;22.20;99.90;26.40;101186.00;;;;6246832;22;20154;-60
2023/07/16 09:11:21;;;;;;;1.45;1.33;;;22.60;99.90;25.30;101198.00;;;;6246445;22;20283;-63
2023/07/16 09:13:55;;;;;;;3.67;1.88;;;22.10;99.90;23.90;101217.00;;;;6246638;22;20169;-62
2023/07/16 09:16:27;;;;;;;1.67;1.08;;;21.60;99.90;24.40;101208.00;;;;6246217;22;20461;-63
2023/07/16 09:19:11;;;;;;;0.47;0.47;;;21.50;99.90;25.00;101201.00;;;;6219429;23;20244;-62
2023/07/16 09:22:00;;;;;;;0.10;0.10;;;21.70;99.90;25.50;101199.00;;;;6244867;23;20456;-63
2023/07/16 09:24:35;;;;;;;0.60;0.60;;;21.80;99.90;23.70;101208.00;;;;6242901;23;20238;-62
2023/07/16 09:27:09;;;;;;;4.03;2.30;;;21.30;99.90;24.30;101191.00;;;;6245842;22;20212;-65
2023/07/16 09:29:48;;;;;;;0.30;0.30;;;21.20;99.90;24.30;101194.00;;;;6244954;23;20500;-63
2023/07/16 09:32:37;;;;;;;3.65;1.20;;;21.00;99.90;24.60;101196.00;;;;6245558;22;20152;-63
2023/07/16 09:35:15;;;;;;;2.15;0.93;;;21.40;99.90;24.70;101197.00;;;;6246958;22;20154;-62
2023/07/16 09:37:42;;;;;;;0.13;0.13;;;21.60;99.90;25.50;101175.00;;;;6246127;22;20616;-63
2023/07/16 09:40:12;;;;;;;0.22;0.22;;;21.60;99.90;24.70;101206.00;;;;6246387;22;20145;-63
2023/07/16 09:42:42;;;;;;;5.10;1.27;;;21.50;99.90;25.30;101184.00;;;;6218994;23;20183;-62
2023/07/16 09:45:19;;;;;;;3.13;1.98;;;21.50;99.90;23.30;101217.00;;;;6218716;23;20161;-63
2023/07/16 09:47:45;;;;;;;1.33;1.25;;;21.00;99.90;21.90;101186.00;;;;6244532;23;20146;-64
2023/07/16 09:50:11;;;;;;;3.08;1.65;;;20.20;99.90;22.10;101180.00;;;;6218722;23;20154;-64
2023/07/16 09:52:39;;;;;;;0.70;0.70;;;20.10;99.90;22.20;101149.00;;;;6219680;23;20168;-65
2023/07/16 09:55:08;;;;;;;1.02;0.50;;;20.00;99.90;24.10;101174.00;;;;6219930;23;20627;-66
2023/07/16 09:57:42;;;;;;;0.10;0.10;;;20.40;99.90;24.20;101156.00;;;;6244961;23;20152;-63
2023/07/16 10:00:13;;;;;;;3.25;1.70;;;20.70;99.90;22.10;101168.00;;;;6245958;22;20162;-62
2023/07/16 10:02:52;;;;;;;3.47;2.45;;;20.20;99.90;21.60;101149.00;;;;6246544;22;20252;-63
2023/07/16 10:05:28;;;;;;;2.63;2.42;;;19.90;99.90;21.30;101121.00;;;;6244861;23;20157;-63
2023/07/16 10:08:20;;;;;;;2.43;1.83;;;19.60;99.90;20.90;101138.00;;;;6245071;23;20149;-63
2023/07/16 10:10:56;;;;;;;2.20;1.53;;;19.10;99.90;20.10;101130.00;;;;6244517;23;20255;-65
2023/07/16 10:13:26;;;;;;;3.25;2.17;;;19.00;99.90;20.70;101141.00;;;;6219139;23;20563;-64
2023/07/16 10:15:54;;;;;;;4.22;1.80;;;19.10;99.90;21.40;101154.00;;;;6245018;23;20153;-64
2023/07/16 10:18:38;;;;;;;4.67;3.07;;;19.30;99.90;20.90;101165.00;;;;6240120;23;20148;-63
2023/07/16 10:33:28;;;;;;;2.53;1.48;;;19.10;99.90;20.70;101154.00;;;;5022550;28;20945;-64
2023/07/16 10:36:43;;;;;;;4.07;1.60;;;19.60;99.90;22.40;101198.00;;;;5048167;28;20658;-65
2023/07/16 10:39:21;;;;;;;1.25;1.15;;;20.10;99.90;22.20;101187.00;;;;5025603;28;20176;-64
2023/07/16 10:41:47;;;;;;;2.33;1.73;;;20.20;99.90;23.30;101191.00;;;;4999857;28;20269;-65
2023/07/16 10:44:15;;;;;;;0.68;0.68;;;20.50;99.90;22.50;101182.00;;;;5050571;28;20243;-64
2023/07/16 10:46:47;;;;;;;2.22;1.25;;;20.60;99.90;24.10;101175.00;;;;5058092;28;20181;-64
2023/07/16 10:49:30;;;;;;;1.13;1.02;;;21.00;99.90;24.20;101208.00;;;;4990248;28;20252;-65
2023/07/16 10:52:05;;;;;;;1.55;0.70;;;21.60;99.90;24.90;101223.00;;;;5041332;28;20208;-65
2023/07/16 10:54:34;;;;;;;0.57;0.57;;;21.90;99.90;23.20;101220.00;;;;5034769;28;20230;-64
2023/07/16 10:57:12;;;;;;;0.10;0.10;;;21.30;99.90;23.50;101203.00;;;;5017965;28;20550;-64
2023/07/16 11:00:13;;;;;;;0.20;0.20;;;20.80;99.90;23.90;101218.00;;;;4997522;28;20173;-64
2023/07/16 11:03:21;;;;;;;4.38;0.77;;;21.10;99.90;25.00;101214.00;;;;4989470;28;20199;-64
2023/07/16 11:06:30;;;;;;;0.10;0.10;;;21.60;99.90;26.30;101239.00;;;;5030620;28;20230;-64
2023/07/16 11:09:21;;;;;;;0.50;0.50;;;22.70;99.90;25.80;101257.00;;;;5090030;28;20211;-64
2023/07/16 11:12:52;;;;;;;0.10;0.10;;;23.00;99.90;27.00;101269.00;;;;4988467;28;20679;-64
2023/07/16 11:16:06;;;;;;;3.42;1.38;;;24.00;99.90;24.50;101297.00;;;;5026713;28;20184;-64
2023/07/16 11:18:31;;;;;;;0.43;0.38;;;22.70;99.90;25.60;101273.00;;;;5043277;28;20183;-64
2023/07/16 11:21:00;;;;;;;0.32;0.30;;;22.40;99.90;25.10;101274.00;;;;5015662;28;20189;-64
2023/07/16 11:23:36;;;;;;;0.80;0.50;;;22.90;99.90;26.60;101249.00;;;;5004692;28;20181;-64
2023/07/16 11:26:54;;;;;;;0.30;0.30;;;23.60;99.90;26.90;101268.00;;;;5015108;28;20177;-63
2023/07/16 11:29:49;;;;;;;1.65;0.47;;;23.10;99.90;28.00;101264.00;;;;5019601;28;20180;-64
2023/07/16 11:32:42;;;;;;;0.88;0.88;;;24.40;99.90;26.30;101246.00;;;;5054373;28;20228;-64
2023/07/16 11:35:15;;;;;;;1.33;0.68;;;24.00;99.90;25.20;101301.00;;;;5019643;28;20587;-68
2023/07/16 11:37:58;;;;;;;1.35;0.47;;;23.30;99.90;26.20;101291.00;;;;5019292;28;20269;-68
2023/07/16 11:40:42;;;;;;;5.43;0.90;;;23.40;99.90;24.90;101306.00;;;;5028228;28;20180;-64
2023/07/16 11:43:16;;;;;;;0.45;0.43;;;23.50;99.90;26.00;101301.00;;;;4981566;28;20189;-64
2023/07/16 11:45:54;;;;;;;0.10;0.10;;;23.60;99.90;26.20;101286.00;;;;4991300;28;20184;-64
2023/07/16 11:48:28;;;;;;;4.10;0.93;;;23.20;99.90;26.30;101289.00;;;;4998329;28;20185;-64
2023/07/16 11:51:34;;;;;;;4.40;0.50;;;23.70;99.90;27.60;101267.00;;;;5010836;28;20591;-64
2023/07/16 11:54:21;;;;;;;0.82;0.60;;;24.00;99.90;26.00;101275.00;;;;5057737;28;20236;-64
2023/07/16 11:57:14;;;;;;;0.65;0.57;;;23.30;99.90;26.50;101286.00;;;;4993411;28;20239;-64
2023/07/16 12:00:00;;;;;;;0.10;0.10;;;23.30;99.90;27.60;101269.00;;;;5003119;28;20189;-64
2023/07/16 12:02:29;;;;;;;2.63;0.30;;;23.90;99.90;26.30;101295.00;;;;4990463;28;20201;-64
2023/07/16 12:05:00;;;;;;;1.08;0.32;;;23.50;99.90;27.20;101269.00;;;;5055013;28;20174;-64
2023/07/16 12:07:41;;;;;;;0.10;0.10;;;23.70;99.90;29.10;101253.00;;;;5020687;28;20192;-64
2023/07/16 12:10:22;;;;;;;0.80;0.52;;;24.50;99.90;27.00;101282.00;;;;5095035;28;20193;-64
2023/07/16 12:12:51;;;;;;;0.52;0.52;;;24.60;99.90;26.40;101282.00;;;;5039779;28;20198;-64
2023/07/16 12:15:24;;;;;;;0.73;0.52;;;23.90;99.90;24.90;101310.00;;;;4988974;28;20551;-64
2023/07/16 12:18:11;;;;;;;1.88;1.13;;;22.80;99.90;24.40;101302.00;;;;4983548;28;20204;-64
2023/07/16 12:20:36;;;;;;;1.23;0.68;;;22.00;99.90;24.00;101304.00;;;;4982743;28;20185;-64
2023/07/16 12:23:03;;;;;;;0.30;0.30;;;21.60;99.90;26.90;101291.00;;;;4996046;28;20187;-69
2023/07/16 12:25:31;;;;;;;1.95;0.85;;;22.40;99.90;26.50;101297.00;;;;4956746;28;20651;-64
2023/07/16 12:30:46;;;;;;;0.75;0.75;;;23.10;99.90;28.50;101257.00;;;;5015846;28;20554;-65
2023/07/16 12:33:14;;;;;;;0.65;0.65;;;24.00;99.90;28.50;101260.00;;;;4981503;28;20216;-69
2023/07/16 12:35:40;;;;;;;1.67;0.47;;;24.40;99.90;28.30;101259.00;;;;4985232;28;20630;-64
2023/07/16 12:38:06;;;;;;;0.10;0.10;;;24.60;99.90;27.60;101267.00;;;;4985219;28;20185;-64
2023/07/16 12:40:39;;;;;;;0.10;0.10;;;24.30;99.90;27.80;101277.00;;;;4988077;28;20660;-64
2023/07/16 12:43:08;;;;;;;0.40;0.40;;;24.20;99.90;27.20;101271.00;;;;5022325;28;20548;-64
2023/07/16 12:45:34;;;;;;;0.10;0.10;;;23.90;99.90;27.80;101277.00;;;;4980836;28;20328;-65
2023/07/16 12:48:00;;;;;;;0.70;0.65;;;24.00;99.90;27.30;101285.00;;;;4978174;28;20551;-64
2023/07/16 12:51:04;;;;;;;2.10;0.88;;;23.90;99.90;27.40;101298.00;;;;4981204;28;20181;-65
2023/07/16 12:53:43;;;;;;;1.95;1.00;;;23.90;99.90;27.30;101297.00;;;;4984332;28;20193;-63
2023/07/16 12:56:44;;;;;;;1.20;0.60;;;23.70;99.90;27.30;101301.00;;;;4981860;28;20196;-63
2023/07/16 13:02:51;;;;;;;0.22;0.22;;;23.50;99.90;27.00;101314.00;;;;4978267;28;20240;-63
2023/07/16 13:05:52;;;;;;;0.10;0.10;;;23.60;99.90;28.10;101268.00;;;;4983446;28;20200;-64
2023/07/16 13:09:16;;;;;;;0.30;0.30;;;23.80;99.90;27.10;101315.00;;;;4982366;28;20705;-64
2023/07/16 13:12:22;;;;;;;2.75;1.60;;;23.20;99.90;25.00;101344.00;;;;4987136;28;20210;-64
2023/07/16 13:14:48;;;;;;;0.25;0.25;;;22.70;99.90;24.80;101346.00;;;;4983117;28;20271;-63
2023/07/16 13:17:51;;;;;;;0.20;0.20;;;22.10;99.90;25.30;101341.00;;;;5025753;28;20276;-63
2023/07/16 13:20:52;;;;;;;0.77;0.77;;;22.50;99.90;24.80;101343.00;;;;5033930;28;20224;-63
2023/07/16 13:23:21;;;;;;;0.45;0.45;;;22.50;99.90;26.00;101329.00;;;;4967774;28;20593;-63
2023/07/16 13:26:29;;;;;;;0.73;0.73;;;22.50;99.90;26.00;101319.00;;;;4976001;28;20291;-64
2023/07/16 13:28:56;;;;;;;1.90;0.98;;;22.90;99.90;25.60;101338.00;;;;5034656;28;20177;-63
2023/07/16 13:31:41;;;;;;;0.10;0.10;;;22.80;99.90;27.00;101319.00;;;;4999761;28;22167;-64
2023/07/16 13:34:30;;;;;;;1.00;0.55;;;22.90;99.90;26.20;101333.00;;;;4977446;28;20244;-64
2023/07/16 13:37:17;;;;;;;1.65;0.43;;;23.10;99.90;25.90;101321.00;;;;5017934;28;20630;-64
2023/07/16 13:40:01;;;;;;;2.03;0.50;;;22.90;99.90;24.80;101368.00;;;;4967950;28;20201;-64
2023/07/16 13:42:50;;;;;;;0.10;0.10;;;22.30;99.90;26.20;101347.00;;;;5026112;28;20708;-64
2023/07/16 13:45:16;;;;;;;0.10;0.10;;;22.70;99.90;26.60;101340.00;;;;4980915;28;20238;-64
2023/07/16 13:47:42;;;;;;;0.43;0.20;;;22.90;99.90;26.70;101337.00;;;;5027589;28;20181;-64
2023/07/16 13:50:09;;;;;;;1.52;1.05;;;23.10;99.90;27.30;101318.00;;;;5003751;28;20177;-64
2023/07/16 13:52:35;;;;;;;0.80;0.80;;;23.50;99.90;26.20;101348.00;;;;5004409;28;20200;-64
2023/07/16 13:55:35;;;;;;;0.10;0.10;;;23.20;99.90;27.90;101328.00;;;;4986163;28;20234;-65
2023/07/16 13:58:36;;;;;;;1.80;0.25;;;23.50;99.90;27.00;101341.00;;;;4992135;28;20264;-65
2023/07/16 14:01:27;;;;;;;0.55;0.20;;;23.60;99.90;26.70;101340.00;;;;5051221;28;20193;-65
2023/07/16 14:04:33;;;;;;;0.10;0.10;;;23.40;99.90;27.40;101322.00;;;;5042950;28;20264;-66
2023/07/16 14:07:37;;;;;;;0.10;0.10;;;24.00;99.90;27.60;101325.00;;;;5030395;28;20189;-66
2023/07/16 14:10:39;;;;;;;1.33;1.23;;;24.00;99.90;25.70;101364.00;;;;4962482;28;20180;-65
2023/07/16 14:13:32;;;;;;;0.30;0.30;;;23.40;99.90;26.50;101352.00;;;;5002210;28;20205;-65
2023/07/16 14:16:33;;;;;;;0.15;0.15;;;23.20;99.90;28.10;101322.00;;;;4988445;28;20224;-65
2023/07/16 14:19:34;;;;;;;0.10;0.10;;;23.40;99.90;27.10;101335.00;;;;4984411;28;20270;-66
2023/07/16 14:22:37;;;;;;;0.75;0.75;;;23.50;99.90;28.80;101316.00;;;;5032210;28;20184;-65
2023/07/16 14:25:25;;;;;;;0.90;0.68;;;24.20;99.90;26.90;101336.00;;;;5053287;28;20191;-66
2023/07/16 14:28:32;;;;;;;0.13;0.13;;;24.10;99.90;28.10;101322.00;;;;5036769;28;20193;-65
2023/07/16 14:31:33;;;;;;;0.40;0.40;;;23.80;99.90;26.60;101313.00;;;;4991883;28;20211;-65
2023/07/16 14:34:33;;;;;;;0.47;0.45;;;23.60;99.90;26.90;101342.00;;;;4998792;28;20200;-65
2023/07/16 14:37:37;;;;;;;0.10;0.10;;;23.80;99.90;27.70;101337.00;;;;4993519;28;20607;-65
2023/07/16 14:40:38;;;;;;;1.48;0.25;;;23.60;99.90;27.10;101340.00;;;;4980894;28;20196;-66
2023/07/16 14:43:29;;;;;;;0.10;0.10;;;23.60;99.90;27.20;101336.00;;;;4956341;28;20275;-66
2023/07/16 14:46:15;;;;;;;0.20;0.20;;;24.00;99.90;27.00;101350.00;;;;4992748;28;20201;-66
2023/07/16 14:49:07;;;;;;;0.77;0.68;;;24.00;99.90;26.20;101367.00;;;;4969970;28;20232;-65
2023/07/16 14:52:01;;;;;;;0.10;0.10;;;23.40;99.90;26.30;101370.00;;;;4976850;28;20212;-65
2023/07/16 14:54:47;;;;;;;0.10;0.10;;;23.10;99.90;27.20;101349.00;;;;4995154;28;20192;-66
2023/07/16 14:57:15;;;;;;;0.25;0.25;;;23.50;99.90;27.90;101321.00;;;;4968867;28;20216;-65
2023/07/16 14:59:41;;;;;;;0.10;0.10;;;23.80;99.90;28.10;101301.00;;;;4969453;28;20193;-65
2023/07/16 15:02:48;;;;;;;0.20;0.20;;;24.20;99.90;27.70;101325.00;;;;4982541;28;20658;-65
2023/07/16 15:05:47;;;;;;;0.10;0.10;;;24.10;99.90;27.40;101323.00;;;;4976764;28;20674;-66
2023/07/16 15:08:36;;;;;;;0.10;0.10;;;23.90;99.90;27.80;101327.00;;;;4980820;28;20691;-66
2023/07/16 15:11:25;;;;;;;0.10;0.10;;;23.90;99.90;28.50;101304.00;;;;4919181;29;20219;-66
2023/07/16 15:14:34;;;;;;;0.10;0.10;;;24.20;99.90;27.70;101326.00;;;;4984401;28;20242;-66
2023/07/16 15:17:06;;;;;;;0.38;0.30;;;24.20;99.90;26.40;101344.00;;;;4988200;28;20191;-65
2023/07/16 15:20:02;;;;;;;1.15;0.60;;;23.50;99.90;25.40;101368.00;;;;5011342;28;20189;-65
2023/07/16 15:23:15;;;;;;;1.15;0.95;;;22.90;99.90;25.70;101358.00;;;;4992495;28;21075;-66
2023/07/16 15:26:03;;;;;;;0.38;0.38;;;22.90;99.90;25.30;101360.00;;;;4966161;28;20584;-66
2023/07/16 15:29:10;;;;;;;1.00;0.90;;;22.60;99.90;25.30;101384.00;;;;4986118;28;20185;-66
2023/07/16 15:31:56;;;;;;;0.20;0.20;;;22.50;99.90;25.80;101383.00;;;;4982328;28;20240;-67
2023/07/16 15:34:59;;;;;;;0.25;0.25;;;22.60;99.90;27.10;101368.00;;;;4982633;28;20196;-66
2023/07/16 15:38:02;;;;;;;0.10;0.10;;;23.20;99.90;26.40;101389.00;;;;4964622;28;20709;-66
2023/07/16 15:41:07;;;;;;;1.33;0.63;;;23.40;99.90;24.70;101399.00;;;;4987343;28;20634;-65
2023/07/16 15:44:14;;;;;;;0.82;0.70;;;22.60;99.90;24.00;101431.00;;;;4984274;28;20218;-65
2023/07/16 15:47:05;;;;;;;0.65;0.60;;;21.90;99.90;23.90;101359.00;;;;4983393;28;20184;-66
2023/07/16 15:50:06;;;;;;;0.88;0.68;;;21.30;99.90;22.00;101290.00;;;;4985431;28;20200;-68
2023/07/16 15:53:25;;;;;;;2.10;0.95;;;20.30;99.90;21.80;101313.00;;;;4983717;28;20629;-67
2023/07/16 15:56:44;;;;;;;1.25;0.90;;;20.10;99.90;21.60;101286.00;;;;5043770;28;20185;-67
2023/07/16 16:00:08;;;;;;;1.10;0.73;;;19.50;99.90;22.00;101285.00;;;;5010995;28;20177;-69
2023/07/16 16:03:20;;;;;;;0.33;0.33;;;19.60;99.90;22.80;101301.00;;;;4978551;28;20192;-66
2023/07/16 16:06:31;;;;;;;1.07;0.93;;;19.90;99.90;22.20;101306.00;;;;4972554;28;20192;-68
2023/07/16 16:09:39;;;;;;;0.57;0.57;;;20.00;99.90;22.60;101301.00;;;;5001258;28;20211;-67
2023/07/16 16:12:43;;;;;;;0.50;0.50;;;19.70;99.90;21.80;101273.00;;;;4988049;28;20193;-67
2023/07/16 16:16:07;;;;;;;1.63;1.52;;;19.80;99.90;23.30;101291.00;;;;5020190;28;20181;-67
2023/07/16 16:19:26;;;;;;;0.20;0.20;;;19.90;99.90;23.20;101289.00;;;;4998365;28;20553;-67
2023/07/16 16:22:41;;;;;;;3.03;2.25;;;20.20;99.90;23.90;101294.00;;;;4976172;28;20254;-67
2023/07/16 16:25:47;;;;;;;0.43;0.30;;;20.70;99.90;23.60;101292.00;;;;4996099;28;20181;-67
2023/07/16 16:29:05;;;;;;;0.20;0.20;;;20.90;99.90;24.40;101289.00;;;;4998410;28;20226;-67
2023/07/16 16:35:56;;;;;;;0.35;0.35;;;20.70;99.90;22.80;101310.00;;;;5009380;28;20276;-67
2023/07/16 16:39:19;;;;;;;0.75;0.75;;;20.70;99.90;23.60;101310.00;;;;5044822;28;20200;-67
2023/07/16 16:42:46;;;;;;;0.28;0.28;;;20.90;99.90;24.90;101334.00;;;;4962075;28;20264;-67
2023/07/16 16:45:52;;;;;;;0.20;0.20;;;21.20;99.90;25.00;101338.00;;;;5001969;28;20205;-67
2023/07/16 16:48:27;;;;;;;0.10;0.10;;;21.50;99.90;24.40;101307.00;;;;5002504;28;20185;-67
2023/07/16 16:51:54;;;;;;;1.15;0.43;;;21.20;99.90;25.70;101336.00;;;;4985323;28;20203;-67
2023/07/16 16:55:13;;;;;;;0.35;0.20;;;21.40;99.90;25.90;101351.00;;;;4985939;28;20188;-67
2023/07/16 16:58:32;;;;;;;0.35;0.35;;;21.80;99.90;26.20;101352.00;;;;4984933;28;20195;-67
2023/07/16 17:01:18;;;;;;;0.10;0.10;;;22.00;99.90;26.70;101342.00;;;;4978448;28;20188;-67
2023/07/16 17:04:13;;;;;;;0.10;0.10;;;22.30;99.90;27.10;101349.00;;;;5051360;28;20213;-67
2023/07/16 17:06:58;;;;;;;0.10;0.10;;;22.50;99.90;26.10;101343.00;;;;5010402;28;20174;-67
2023/07/16 17:09:43;;;;;;;0.10;0.10;;;22.30;99.90;26.60;101349.00;;;;4999915;28;20273;-66
2023/07/16 17:12:34;;;;;;;0.10;0.10;;;22.40;99.90;26.00;101346.00;;;;4978269;28;20253;-66
2023/07/16 17:15:35;;;;;;;0.57;0.50;;;22.40;99.90;25.90;101331.00;;;;4991487;28;20208;-67
2023/07/16 17:18:21;;;;;;;0.10;0.10;;;22.30;99.90;26.50;101347.00;;;;4999803;28;20188;-66
2023/07/16 17:21:12;;;;;;;0.10;0.10;;;22.50;99.90;26.20;101321.00;;;;5042877;28;20687;-66
2023/07/16 17:23:58;;;;;;;0.10;0.10;;;22.70;99.90;26.70;101349.00;;;;5007814;28;20185;-66
2023/07/16 17:26:31;;;;;;;1.45;0.52;;;22.50;99.90;25.80;101367.00;;;;4943025;28;20628;-66
2023/07/16 17:29:17;;;;;;;0.10;0.10;;;22.30;99.90;25.70;101362.00;;;;4980980;28;20588;-66
2023/07/16 17:32:19;;;;;;;0.10;0.10;;;22.30;99.90;25.40;101376.00;;;;5004831;28;20678;-67
2023/07/16 17:34:52;;;;;;;0.20;0.20;;;21.90;99.90;26.70;101330.00;;;;5040957;28;20231;-66
2023/07/16 17:37:38;;;;;;;0.10;0.10;;;22.20;99.90;26.80;101351.00;;;;5045841;28;20629;-66
2023/07/16 17:40:22;;;;;;;1.08;1.08;;;22.80;99.90;27.30;101343.00;;;;5002044;28;20189;-67
2023/07/16 17:42:50;;;;;;;0.17;0.17;;;22.80;99.90;26.90;101355.00;;;;4977349;28;20204;-66
2023/07/16 17:45:16;;;;;;;0.10;0.10;;;22.70;99.90;27.50;101336.00;;;;5049253;28;20181;-66
2023/07/16 17:48:00;;;;;;;0.10;0.10;;;22.80;99.90;27.30;101315.00;;;;4985896;28;20198;-66
2023/07/16 17:51:21;;;;;;;0.10;0.10;;;22.90;99.90;28.10;101326.00;;;;4965765;28;20283;-66
2023/07/16 17:54:50;;;;;;;0.10;0.10;;;23.30;99.90;27.50;101331.00;;;;4996622;28;20240;-66
2023/07/16 17:57:42;;;;;;;0.95;0.30;;;23.40;99.90;26.10;101360.00;;;;4996836;28;20219;-66
2023/07/16 18:00:44;;;;;;;0.10;0.10;;;22.50;99.90;27.40;101324.00;;;;4966452;28;20176;-66
2023/07/16 18:03:35;;;;;;;0.10;0.10;;;22.70;99.90;26.70;101358.00;;;;4973945;28;20188;-66
2023/07/16 18:06:26;;;;;;;0.10;0.10;;;22.90;99.90;27.00;101352.00;;;;5019429;28;20189;-66
2023/07/16 18:09:14;;;;;;;0.10;0.10;;;22.70;99.90;26.90;101350.00;;;;4997550;28;20260;-66
2023/07/16 18:12:15;;;;;;;0.10;0.10;;;22.40;99.90;26.90;101346.00;;;;4972805;28;20209;-66
2023/07/16 18:15:21;;;;;;;0.30;0.30;;;22.50;99.90;27.10;101356.00;;;;4978036;28;20189;-66
2023/07/16 18:18:25;;;;;;;0.10;0.10;;;22.50;99.90;26.90;101367.00;;;;4983946;28;20231;-66
2023/07/16 18:21:29;;;;;;;0.10;0.10;;;22.70;99.90;27.00;101339.00;;;;5013313;28;20184;-66
2023/07/16 18:24:22;;;;;;;0.10;0.10;;;22.80;99.90;27.40;101364.00;;;;4985473;28;20217;-66
2023/07/16 18:27:30;;;;;;;0.10;0.10;;;23.00;99.90;26.80;101378.00;;;;5010140;28;20247;-66
2023/07/16 18:30:06;;;;;;;0.10;0.10;;;22.60;99.90;27.60;101377.00;;;;4969673;28;20635;-66
2023/07/16 18:33:24;;;;;;;0.52;0.52;;;22.80;99.90;25.50;101402.00;;;;4984069;28;20216;-66
2023/07/16 18:37:14;;;;;;;0.10;0.10;;;22.30;99.90;25.20;101428.00;;;;5068106;28;20189;-63
2023/07/16 18:39:40;;;;;;;0.70;0.63;;;21.80;99.90;25.70;101409.00;;;;4989902;28;20201;-63
2023/07/16 18:42:32;;;;;;;5.18;0.50;;;21.70;99.90;25.10;101426.00;;;;5011066;28;20272;-64
2023/07/16 18:45:33;;;;;;;0.10;0.10;;;21.70;99.90;24.70;101433.00;;;;4962064;28;20549;-63
2023/07/16 18:48:34;;;;;;;0.10;0.10;;;21.60;99.90;25.40;101413.00;;;;4996688;28;20189;-63
2023/07/16 18:51:30;;;;;;;1.60;1.50;;;21.20;99.90;25.10;101407.00;;;;4993853;28;20177;-63
2023/07/16 18:54:48;;;;;;;0.10;0.10;;;21.30;99.90;24.10;101444.00;;;;5027758;28;20227;-63
2023/07/16 18:58:14;;;;;;;0.20;0.20;;;21.00;99.90;24.60;101443.00;;;;5035366;28;20757;-64
2023/07/16 19:00:40;;;;;;;0.10;0.10;;;21.10;99.90;25.50;101432.00;;;;5003306;28;20185;-63
2023/07/16 19:03:09;;;;;;;0.10;0.10;;;21.20;99.90;25.80;101423.00;;;;5014429;28;20200;-63
2023/07/16 19:05:34;;;;;;;0.10;0.10;;;21.40;99.90;24.90;101443.00;;;;4990361;28;20224;-63
2023/07/16 19:08:00;;;;;;;0.10;0.10;;;21.30;99.90;24.30;101452.00;;;;4998595;28;20232;-63
2023/07/16 19:10:47;;;;;;;0.10;0.10;;;21.00;99.90;25.90;101444.00;;;;4991117;28;20635;-63
2023/07/16 19:13:13;;;;;;;0.10;0.10;;;21.30;99.90;26.50;101424.00;;;;4973531;28;20246;-63
2023/07/16 19:15:47;;;;;;;0.10;0.10;;;21.70;99.90;26.10;101425.00;;;;5023070;28;20267;-63
2023/07/16 19:19:15;;;;;;;0.10;0.10;;;21.80;99.90;26.40;101429.00;;;;4983580;28;20631;-63
2023/07/16 19:22:24;;;;;;;0.10;0.10;;;21.80;99.90;26.50;101418.00;;;;4982020;28;20271;-63
2023/07/16 19:25:32;;;;;;;0.10;0.10;;;21.80;99.90;25.20;101433.00;;;;5000923;28;20209;-63
2023/07/16 19:28:58;;;;;;;0.20;0.20;;;21.50;99.90;24.40;101444.00;;;;5006055;28;20220;-63
2023/07/16 19:31:47;;;;;;;0.10;0.10;;;21.10;99.90;24.40;101440.00;;;;5012335;28;20192;-63
2023/07/16 19:34:58;;;;;;;0.10;0.10;;;20.90;99.90;24.90;101445.00;;;;5024956;28;20261;-63
2023/07/16 19:37:30;;;;;;;0.10;0.10;;;20.90;99.90;25.60;101430.00;;;;5032485;28;20218;-63